sensor_id;sensor_type;location;lat;lon;timestamp;P1;durP1;ratioP1;P2;durP2;ratioP2
52668;SDS011;59898;52.786;6.892;2022-12-05T00:01:51;30.42;;;18.65;;
52668;SDS011;59898;52.786;6.892;2022-12-05T00:05:11;30.23;;;18.02;;
52668;SDS011;59898;52.786;6.892;2022-12-05T00:08:32;26.50;;;18.38;;
52668;SDS011;59898;52.786;6.892;2022-12-05T00:11:53;31.15;;;18.27;;
52668;SDS011;59898;52.786;6.892;2022-12-05T00:15:14;27.65;;;15.90;;
52668;SDS011;59898;52.786;6.892;2022-12-05T00:18:34;28.67;;;18.30;;
52668;SDS011;59898;52.786;6.892;2022-12-05T00:21:55;26.85;;;17.20;;
52668;SDS011;59898;52.786;6.892;2022-12-05T00:25:16;24.88;;;16.13;;
52668;SDS011;59898;52.786;6.892;2022-12-05T00:28:37;28.50;;;17.90;;
52668;SDS011;59898;52.786;6.892;2022-12-05T00:31:58;30.08;;;17.58;;
52668;SDS011;59898;52.786;6.892;2022-12-05T00:35:19;29.83;;;16.00;;
52668;SDS011;59898;52.786;6.892;2022-12-05T00:38:40;27.70;;;17.95;;
52668;SDS011;59898;52.786;6.892;2022-12-05T00:42:01;27.10;;;17.00;;
52668;SDS011;59898;52.786;6.892;2022-12-05T00:45:21;32.05;;;18.25;;
52668;SDS011;59898;52.786;6.892;2022-12-05T00:48:42;28.27;;;19.63;;
52668;SDS011;59898;52.786;6.892;2022-12-05T00:52:03;33.78;;;18.63;;
52668;SDS011;59898;52.786;6.892;2022-12-05T00:55:24;27.48;;;16.85;;
52668;SDS011;59898;52.786;6.892;2022-12-05T00:58:45;29.17;;;18.58;;
52668;SDS011;59898;52.786;6.892;2022-12-05T01:02:06;32.22;;;19.58;;
52668;SDS011;59898;52.786;6.892;2022-12-05T01:05:26;29.88;;;18.92;;
52668;SDS011;59898;52.786;6.892;2022-12-05T01:08:47;31.48;;;19.67;;
52668;SDS011;59898;52.786;6.892;2022-12-05T01:12:09;32.67;;;21.35;;
52668;SDS011;59898;52.786;6.892;2022-12-05T01:15:29;31.33;;;19.13;;
52668;SDS011;59898;52.786;6.892;2022-12-05T01:18:50;38.15;;;19.58;;
52668;SDS011;59898;52.786;6.892;2022-12-05T01:22:11;31.77;;;18.95;;
52668;SDS011;59898;52.786;6.892;2022-12-05T01:25:31;32.33;;;19.95;;
52668;SDS011;59898;52.786;6.892;2022-12-05T01:28:52;34.75;;;21.75;;
52668;SDS011;59898;52.786;6.892;2022-12-05T01:32:14;29.83;;;20.00;;
52668;SDS011;59898;52.786;6.892;2022-12-05T01:35:36;32.97;;;22.35;;
52668;SDS011;59898;52.786;6.892;2022-12-05T01:42:19;35.42;;;21.88;;
52668;SDS011;59898;52.786;6.892;2022-12-05T01:45:40;34.13;;;20.83;;
52668;SDS011;59898;52.786;6.892;2022-12-05T01:49:07;41.22;;;21.75;;
52668;SDS011;59898;52.786;6.892;2022-12-05T01:52:28;34.67;;;22.50;;
52668;SDS011;59898;52.786;6.892;2022-12-05T01:55:50;36.47;;;21.33;;
52668;SDS011;59898;52.786;6.892;2022-12-05T01:59:13;37.70;;;22.83;;
52668;SDS011;59898;52.786;6.892;2022-12-05T02:02:35;35.65;;;20.83;;
52668;SDS011;59898;52.786;6.892;2022-12-05T02:05:57;38.08;;;21.48;;
52668;SDS011;59898;52.786;6.892;2022-12-05T02:09:19;38.50;;;22.52;;
52668;SDS011;59898;52.786;6.892;2022-12-05T02:12:40;34.85;;;22.70;;
52668;SDS011;59898;52.786;6.892;2022-12-05T02:40:49;36.53;;;22.98;;
52668;SDS011;59898;52.786;6.892;2022-12-05T02:44:38;43.17;;;25.33;;
52668;SDS011;59898;52.786;6.892;2022-12-05T02:48:08;39.47;;;23.30;;
52668;SDS011;59898;52.786;6.892;2022-12-05T02:51:32;36.17;;;24.60;;
52668;SDS011;59898;52.786;6.892;2022-12-05T02:54:57;39.35;;;23.55;;
52668;SDS011;59898;52.786;6.892;2022-12-05T02:58:23;38.78;;;24.15;;
52668;SDS011;59898;52.786;6.892;2022-12-05T03:01:50;39.83;;;24.33;;
52668;SDS011;59898;52.786;6.892;2022-12-05T03:05:16;43.63;;;24.55;;
52668;SDS011;59898;52.786;6.892;2022-12-05T03:08:56;38.70;;;23.77;;
52668;SDS011;59898;52.786;6.892;2022-12-05T03:12:40;38.95;;;23.83;;
52668;SDS011;59898;52.786;6.892;2022-12-05T03:16:09;40.55;;;23.40;;
52668;SDS011;59898;52.786;6.892;2022-12-05T03:23:08;40.20;;;23.85;;
52668;SDS011;59898;52.786;6.892;2022-12-05T03:30:16;41.00;;;24.52;;
52668;SDS011;59898;52.786;6.892;2022-12-05T03:33:42;39.80;;;23.40;;
52668;SDS011;59898;52.786;6.892;2022-12-05T03:37:10;36.38;;;21.98;;
52668;SDS011;59898;52.786;6.892;2022-12-05T03:40:47;35.60;;;22.40;;
52668;SDS011;59898;52.786;6.892;2022-12-05T03:44:13;42.85;;;24.48;;
52668;SDS011;59898;52.786;6.892;2022-12-05T03:47:49;40.88;;;22.17;;
52668;SDS011;59898;52.786;6.892;2022-12-05T03:51:33;39.85;;;24.40;;
52668;SDS011;59898;52.786;6.892;2022-12-05T03:55:03;42.03;;;23.55;;
52668;SDS011;59898;52.786;6.892;2022-12-05T03:58:30;39.33;;;22.92;;
52668;SDS011;59898;52.786;6.892;2022-12-05T04:01:55;38.80;;;21.63;;
52668;SDS011;59898;52.786;6.892;2022-12-05T04:05:24;39.00;;;23.65;;
52668;SDS011;59898;52.786;6.892;2022-12-05T04:08:51;38.95;;;21.83;;
52668;SDS011;59898;52.786;6.892;2022-12-05T04:12:18;38.90;;;24.60;;
52668;SDS011;59898;52.786;6.892;2022-12-05T04:15:44;42.00;;;23.58;;
52668;SDS011;59898;52.786;6.892;2022-12-05T04:23:11;40.55;;;22.15;;
52668;SDS011;59898;52.786;6.892;2022-12-05T04:26:32;40.38;;;21.73;;
52668;SDS011;59898;52.786;6.892;2022-12-05T04:29:58;38.85;;;23.38;;
52668;SDS011;59898;52.786;6.892;2022-12-05T04:33:33;41.53;;;22.48;;
52668;SDS011;59898;52.786;6.892;2022-12-05T04:37:03;44.65;;;22.35;;
52668;SDS011;59898;52.786;6.892;2022-12-05T04:40:37;41.42;;;23.38;;
52668;SDS011;59898;52.786;6.892;2022-12-05T04:44:02;39.65;;;23.15;;
52668;SDS011;59898;52.786;6.892;2022-12-05T04:47:27;46.13;;;25.33;;
52668;SDS011;59898;52.786;6.892;2022-12-05T04:50:52;39.45;;;23.08;;
52668;SDS011;59898;52.786;6.892;2022-12-05T04:54:28;42.58;;;22.55;;
52668;SDS011;59898;52.786;6.892;2022-12-05T05:01:35;32.47;;;20.83;;
52668;SDS011;59898;52.786;6.892;2022-12-05T05:05:01;34.22;;;22.00;;
52668;SDS011;59898;52.786;6.892;2022-12-05T05:08:26;36.53;;;22.05;;
52668;SDS011;59898;52.786;6.892;2022-12-05T05:11:48;39.00;;;23.73;;
52668;SDS011;59898;52.786;6.892;2022-12-05T05:15:08;36.00;;;21.45;;
52668;SDS011;59898;52.786;6.892;2022-12-05T05:18:29;40.92;;;21.33;;
52668;SDS011;59898;52.786;6.892;2022-12-05T05:21:50;38.28;;;23.05;;
52668;SDS011;59898;52.786;6.892;2022-12-05T05:25:11;32.13;;;22.42;;
52668;SDS011;59898;52.786;6.892;2022-12-05T05:28:32;32.67;;;20.80;;
52668;SDS011;59898;52.786;6.892;2022-12-05T05:31:53;36.08;;;20.65;;
52668;SDS011;59898;52.786;6.892;2022-12-05T05:35:13;37.42;;;20.20;;
52668;SDS011;59898;52.786;6.892;2022-12-05T05:38:35;31.75;;;18.05;;
52668;SDS011;59898;52.786;6.892;2022-12-05T05:41:57;36.78;;;20.52;;
52668;SDS011;59898;52.786;6.892;2022-12-05T05:45:17;29.48;;;19.65;;
52668;SDS011;59898;52.786;6.892;2022-12-05T05:48:38;32.58;;;17.95;;
52668;SDS011;59898;52.786;6.892;2022-12-05T05:51:59;28.50;;;18.73;;
52668;SDS011;59898;52.786;6.892;2022-12-05T05:55:20;31.30;;;18.33;;
52668;SDS011;59898;52.786;6.892;2022-12-05T05:58:41;29.90;;;18.08;;
52668;SDS011;59898;52.786;6.892;2022-12-05T06:02:02;28.05;;;17.42;;
52668;SDS011;59898;52.786;6.892;2022-12-05T06:05:22;28.55;;;17.83;;
52668;SDS011;59898;52.786;6.892;2022-12-05T06:08:44;27.50;;;16.77;;
52668;SDS011;59898;52.786;6.892;2022-12-05T06:12:05;29.83;;;18.20;;
52668;SDS011;59898;52.786;6.892;2022-12-05T06:15:26;35.58;;;18.67;;
52668;SDS011;59898;52.786;6.892;2022-12-05T06:18:47;34.20;;;18.77;;
52668;SDS011;59898;52.786;6.892;2022-12-05T06:22:08;27.25;;;17.27;;
52668;SDS011;59898;52.786;6.892;2022-12-05T06:25:29;30.42;;;19.73;;
52668;SDS011;59898;52.786;6.892;2022-12-05T06:28:50;28.40;;;17.83;;
52668;SDS011;59898;52.786;6.892;2022-12-05T06:32:10;25.95;;;16.63;;
52668;SDS011;59898;52.786;6.892;2022-12-05T06:35:31;27.48;;;17.63;;
52668;SDS011;59898;52.786;6.892;2022-12-05T06:38:52;28.55;;;16.95;;
52668;SDS011;59898;52.786;6.892;2022-12-05T06:42:12;27.27;;;15.98;;
52668;SDS011;59898;52.786;6.892;2022-12-05T06:45:33;25.23;;;16.42;;
52668;SDS011;59898;52.786;6.892;2022-12-05T06:48:56;29.77;;;15.90;;
52668;SDS011;59898;52.786;6.892;2022-12-05T06:52:17;29.38;;;17.65;;
52668;SDS011;59898;52.786;6.892;2022-12-05T06:55:38;28.38;;;17.27;;
52668;SDS011;59898;52.786;6.892;2022-12-05T06:58:59;26.33;;;16.25;;
52668;SDS011;59898;52.786;6.892;2022-12-05T07:02:19;31.70;;;17.27;;
52668;SDS011;59898;52.786;6.892;2022-12-05T07:05:40;24.88;;;15.07;;
52668;SDS011;59898;52.786;6.892;2022-12-05T07:09:01;26.23;;;16.75;;
52668;SDS011;59898;52.786;6.892;2022-12-05T07:12:23;31.27;;;17.73;;
52668;SDS011;59898;52.786;6.892;2022-12-05T07:15:47;24.73;;;14.82;;
52668;SDS011;59898;52.786;6.892;2022-12-05T07:19:09;25.23;;;16.13;;
52668;SDS011;59898;52.786;6.892;2022-12-05T07:22:30;21.77;;;15.02;;
52668;SDS011;59898;52.786;6.892;2022-12-05T07:25:50;23.65;;;14.38;;
52668;SDS011;59898;52.786;6.892;2022-12-05T07:29:11;17.02;;;11.43;;
52668;SDS011;59898;52.786;6.892;2022-12-05T07:32:32;15.52;;;10.52;;
52668;SDS011;59898;52.786;6.892;2022-12-05T07:35:57;16.52;;;9.82;;
52668;SDS011;59898;52.786;6.892;2022-12-05T07:39:19;13.13;;;8.65;;
52668;SDS011;59898;52.786;6.892;2022-12-05T07:42:40;14.95;;;8.45;;
52668;SDS011;59898;52.786;6.892;2022-12-05T07:46:02;11.70;;;8.13;;
52668;SDS011;59898;52.786;6.892;2022-12-05T07:49:23;14.43;;;7.68;;
52668;SDS011;59898;52.786;6.892;2022-12-05T07:52:44;10.45;;;7.82;;
52668;SDS011;59898;52.786;6.892;2022-12-05T07:56:05;12.35;;;7.30;;
52668;SDS011;59898;52.786;6.892;2022-12-05T07:59:27;11.85;;;8.23;;
52668;SDS011;59898;52.786;6.892;2022-12-05T08:02:48;12.38;;;8.32;;
52668;SDS011;59898;52.786;6.892;2022-12-05T08:06:10;9.82;;;7.38;;
52668;SDS011;59898;52.786;6.892;2022-12-05T08:09:32;11.63;;;7.50;;
52668;SDS011;59898;52.786;6.892;2022-12-05T08:12:53;11.57;;;7.50;;
52668;SDS011;59898;52.786;6.892;2022-12-05T08:16:15;10.85;;;7.20;;
52668;SDS011;59898;52.786;6.892;2022-12-05T08:19:38;10.23;;;7.25;;
52668;SDS011;59898;52.786;6.892;2022-12-05T08:22:58;10.68;;;7.97;;
52668;SDS011;59898;52.786;6.892;2022-12-05T08:26:26;9.10;;;6.85;;
52668;SDS011;59898;52.786;6.892;2022-12-05T08:29:48;12.98;;;7.70;;
52668;SDS011;59898;52.786;6.892;2022-12-05T08:33:09;11.55;;;7.30;;
52668;SDS011;59898;52.786;6.892;2022-12-05T08:36:30;11.43;;;7.43;;
52668;SDS011;59898;52.786;6.892;2022-12-05T08:39:51;10.63;;;7.15;;
52668;SDS011;59898;52.786;6.892;2022-12-05T08:43:11;12.10;;;6.82;;
52668;SDS011;59898;52.786;6.892;2022-12-05T08:46:33;9.52;;;7.35;;
52668;SDS011;59898;52.786;6.892;2022-12-05T08:49:55;10.02;;;7.13;;
52668;SDS011;59898;52.786;6.892;2022-12-05T08:53:16;11.02;;;7.53;;
52668;SDS011;59898;52.786;6.892;2022-12-05T08:56:37;10.57;;;7.35;;
52668;SDS011;59898;52.786;6.892;2022-12-05T08:59:57;9.85;;;7.72;;
52668;SDS011;59898;52.786;6.892;2022-12-05T09:03:18;12.80;;;6.70;;
52668;SDS011;59898;52.786;6.892;2022-12-05T09:06:39;11.45;;;7.72;;
52668;SDS011;59898;52.786;6.892;2022-12-05T09:10:00;9.02;;;6.55;;
52668;SDS011;59898;52.786;6.892;2022-12-05T09:13:21;13.00;;;7.32;;
52668;SDS011;59898;52.786;6.892;2022-12-05T09:16:42;10.57;;;8.13;;
52668;SDS011;59898;52.786;6.892;2022-12-05T09:20:05;10.70;;;7.35;;
52668;SDS011;59898;52.786;6.892;2022-12-05T09:23:26;9.90;;;7.60;;
52668;SDS011;59898;52.786;6.892;2022-12-05T09:26:47;10.50;;;7.78;;
52668;SDS011;59898;52.786;6.892;2022-12-05T09:30:08;14.50;;;8.07;;
52668;SDS011;59898;52.786;6.892;2022-12-05T09:33:29;10.50;;;7.70;;
52668;SDS011;59898;52.786;6.892;2022-12-05T09:36:51;12.27;;;8.60;;
52668;SDS011;59898;52.786;6.892;2022-12-05T09:40:15;13.50;;;8.80;;
52668;SDS011;59898;52.786;6.892;2022-12-05T09:43:42;13.65;;;10.02;;
52668;SDS011;59898;52.786;6.892;2022-12-05T09:47:33;11.43;;;8.30;;
52668;SDS011;59898;52.786;6.892;2022-12-05T09:51:03;12.20;;;7.80;;
52668;SDS011;59898;52.786;6.892;2022-12-05T09:54:24;15.07;;;9.48;;
52668;SDS011;59898;52.786;6.892;2022-12-05T09:57:57;13.80;;;9.52;;
52668;SDS011;59898;52.786;6.892;2022-12-05T10:05:02;14.13;;;9.30;;
52668;SDS011;59898;52.786;6.892;2022-12-05T10:09:18;15.50;;;10.05;;
52668;SDS011;59898;52.786;6.892;2022-12-05T10:15:38;18.23;;;9.65;;
52668;SDS011;59898;52.786;6.892;2022-12-05T10:19:05;18.75;;;9.40;;
52668;SDS011;59898;52.786;6.892;2022-12-05T10:22:46;17.33;;;11.15;;
52668;SDS011;59898;52.786;6.892;2022-12-05T10:26:11;15.50;;;10.00;;
52668;SDS011;59898;52.786;6.892;2022-12-05T10:29:37;13.50;;;9.63;;
52668;SDS011;59898;52.786;6.892;2022-12-05T10:33:20;17.95;;;9.80;;
52668;SDS011;59898;52.786;6.892;2022-12-05T10:36:46;17.88;;;12.43;;
52668;SDS011;59898;52.786;6.892;2022-12-05T10:40:14;17.65;;;10.88;;
52668;SDS011;59898;52.786;6.892;2022-12-05T10:43:36;13.57;;;9.15;;
52668;SDS011;59898;52.786;6.892;2022-12-05T10:47:01;17.65;;;11.70;;
52668;SDS011;59898;52.786;6.892;2022-12-05T10:50:27;16.80;;;9.52;;
52668;SDS011;59898;52.786;6.892;2022-12-05T10:53:50;13.98;;;9.18;;
52668;SDS011;59898;52.786;6.892;2022-12-05T10:57:25;17.88;;;10.90;;
52668;SDS011;59898;52.786;6.892;2022-12-05T11:00:47;16.13;;;9.95;;
52668;SDS011;59898;52.786;6.892;2022-12-05T11:07:46;15.05;;;9.27;;
52668;SDS011;59898;52.786;6.892;2022-12-05T11:14:48;17.83;;;9.40;;
52668;SDS011;59898;52.786;6.892;2022-12-05T11:18:27;14.30;;;9.80;;
52668;SDS011;59898;52.786;6.892;2022-12-05T11:21:53;16.75;;;10.85;;
52668;SDS011;59898;52.786;6.892;2022-12-05T11:25:30;20.48;;;9.00;;
52668;SDS011;59898;52.786;6.892;2022-12-05T11:28:53;14.98;;;8.63;;
52668;SDS011;59898;52.786;6.892;2022-12-05T11:32:18;16.33;;;9.05;;
52668;SDS011;59898;52.786;6.892;2022-12-05T11:35:40;15.40;;;9.15;;
52668;SDS011;59898;52.786;6.892;2022-12-05T11:39:01;13.50;;;10.40;;
52668;SDS011;59898;52.786;6.892;2022-12-05T11:57:43;15.13;;;8.90;;
52668;SDS011;59898;52.786;6.892;2022-12-05T12:08:18;14.48;;;8.32;;
52668;SDS011;59898;52.786;6.892;2022-12-05T12:11:53;13.20;;;8.52;;
52668;SDS011;59898;52.786;6.892;2022-12-05T12:26:53;15.02;;;8.27;;
52668;SDS011;59898;52.786;6.892;2022-12-05T12:30:40;11.82;;;8.10;;
52668;SDS011;59898;52.786;6.892;2022-12-05T12:41:56;10.90;;;6.53;;
52668;SDS011;59898;52.786;6.892;2022-12-05T12:52:58;10.68;;;6.40;;
52668;SDS011;59898;52.786;6.892;2022-12-05T13:03:45;11.90;;;7.68;;
52668;SDS011;59898;52.786;6.892;2022-12-05T13:10:36;9.13;;;6.10;;
52668;SDS011;59898;52.786;6.892;2022-12-05T13:14:00;8.18;;;5.22;;
52668;SDS011;59898;52.786;6.892;2022-12-05T13:17:22;8.15;;;5.03;;
52668;SDS011;59898;52.786;6.892;2022-12-05T13:20:44;7.45;;;4.82;;
52668;SDS011;59898;52.786;6.892;2022-12-05T13:24:09;9.35;;;4.55;;
52668;SDS011;59898;52.786;6.892;2022-12-05T13:27:32;10.82;;;5.38;;
52668;SDS011;59898;52.786;6.892;2022-12-05T13:30:53;8.55;;;5.05;;
52668;SDS011;59898;52.786;6.892;2022-12-05T13:37:49;6.05;;;4.95;;
52668;SDS011;59898;52.786;6.892;2022-12-05T13:41:37;7.57;;;4.90;;
52668;SDS011;59898;52.786;6.892;2022-12-05T13:45:18;8.07;;;5.90;;
52668;SDS011;59898;52.786;6.892;2022-12-05T13:48:40;7.30;;;5.07;;
52668;SDS011;59898;52.786;6.892;2022-12-05T13:52:05;9.18;;;5.53;;
52668;SDS011;59898;52.786;6.892;2022-12-05T13:55:28;8.93;;;5.18;;
52668;SDS011;59898;52.786;6.892;2022-12-05T13:58:51;8.07;;;5.03;;
52668;SDS011;59898;52.786;6.892;2022-12-05T14:09:57;8.80;;;6.07;;
52668;SDS011;59898;52.786;6.892;2022-12-05T14:16:41;7.47;;;4.82;;
52668;SDS011;59898;52.786;6.892;2022-12-05T14:28:09;6.32;;;4.22;;
52668;SDS011;59898;52.786;6.892;2022-12-05T14:31:42;6.90;;;4.60;;
52668;SDS011;59898;52.786;6.892;2022-12-05T14:35:31;9.13;;;5.10;;
52668;SDS011;59898;52.786;6.892;2022-12-05T14:39:01;11.27;;;5.13;;
52668;SDS011;59898;52.786;6.892;2022-12-05T14:42:51;10.20;;;5.28;;
52668;SDS011;59898;52.786;6.892;2022-12-05T14:46:18;7.32;;;4.93;;
52668;SDS011;59898;52.786;6.892;2022-12-05T14:49:54;6.30;;;4.45;;
52668;SDS011;59898;52.786;6.892;2022-12-05T14:56:52;10.98;;;7.50;;
52668;SDS011;59898;52.786;6.892;2022-12-05T15:00:29;10.45;;;5.25;;
52668;SDS011;59898;52.786;6.892;2022-12-05T15:07:29;7.82;;;4.38;;
52668;SDS011;59898;52.786;6.892;2022-12-05T15:10:56;9.18;;;5.00;;
52668;SDS011;59898;52.786;6.892;2022-12-05T15:14:21;8.18;;;5.68;;
52668;SDS011;59898;52.786;6.892;2022-12-05T15:17:49;8.60;;;4.13;;
52668;SDS011;59898;52.786;6.892;2022-12-05T15:21:20;9.63;;;4.70;;
52668;SDS011;59898;52.786;6.892;2022-12-05T15:24:44;10.27;;;5.40;;
52668;SDS011;59898;52.786;6.892;2022-12-05T15:28:05;10.05;;;5.30;;
52668;SDS011;59898;52.786;6.892;2022-12-05T15:31:42;6.22;;;4.93;;
52668;SDS011;59898;52.786;6.892;2022-12-05T15:35:04;7.53;;;4.57;;
52668;SDS011;59898;52.786;6.892;2022-12-05T15:38:28;7.50;;;5.28;;
52668;SDS011;59898;52.786;6.892;2022-12-05T15:41:51;9.18;;;4.97;;
52668;SDS011;59898;52.786;6.892;2022-12-05T15:48:33;6.85;;;4.57;;
52668;SDS011;59898;52.786;6.892;2022-12-05T15:52:00;7.25;;;4.53;;
52668;SDS011;59898;52.786;6.892;2022-12-05T15:59:20;6.47;;;4.40;;
52668;SDS011;59898;52.786;6.892;2022-12-05T16:06:24;7.10;;;4.28;;
52668;SDS011;59898;52.786;6.892;2022-12-05T16:09:54;11.67;;;4.80;;
52668;SDS011;59898;52.786;6.892;2022-12-05T16:13:19;8.27;;;4.18;;
52668;SDS011;59898;52.786;6.892;2022-12-05T16:16:44;8.48;;;5.22;;
52668;SDS011;59898;52.786;6.892;2022-12-05T16:20:47;6.40;;;4.03;;
52668;SDS011;59898;52.786;6.892;2022-12-05T16:23:58;7.47;;;4.40;;
52668;SDS011;59898;52.786;6.892;2022-12-05T16:27:21;7.13;;;4.05;;
52668;SDS011;59898;52.786;6.892;2022-12-05T16:30:57;8.55;;;5.13;;
52668;SDS011;59898;52.786;6.892;2022-12-05T16:34:22;10.95;;;5.00;;
52668;SDS011;59898;52.786;6.892;2022-12-05T16:37:43;6.80;;;5.00;;
52668;SDS011;59898;52.786;6.892;2022-12-05T16:41:04;6.57;;;4.40;;
52668;SDS011;59898;52.786;6.892;2022-12-05T16:48:17;7.95;;;5.32;;
52668;SDS011;59898;52.786;6.892;2022-12-05T16:51:42;8.07;;;5.40;;
52668;SDS011;59898;52.786;6.892;2022-12-05T16:55:05;9.75;;;5.50;;
52668;SDS011;59898;52.786;6.892;2022-12-05T16:58:30;9.93;;;5.72;;
52668;SDS011;59898;52.786;6.892;2022-12-05T17:01:54;8.23;;;4.75;;
52668;SDS011;59898;52.786;6.892;2022-12-05T17:05:14;7.85;;;4.85;;
52668;SDS011;59898;52.786;6.892;2022-12-05T17:08:35;9.00;;;5.10;;
52668;SDS011;59898;52.786;6.892;2022-12-05T17:12:06;9.00;;;5.00;;
52668;SDS011;59898;52.786;6.892;2022-12-05T17:15:32;8.57;;;5.07;;
52668;SDS011;59898;52.786;6.892;2022-12-05T17:18:55;6.85;;;5.22;;
52668;SDS011;59898;52.786;6.892;2022-12-05T17:22:15;8.50;;;4.15;;
52668;SDS011;59898;52.786;6.892;2022-12-05T17:25:36;8.55;;;4.57;;
52668;SDS011;59898;52.786;6.892;2022-12-05T17:28:58;8.10;;;4.82;;
52668;SDS011;59898;52.786;6.892;2022-12-05T17:32:19;9.27;;;5.43;;
52668;SDS011;59898;52.786;6.892;2022-12-05T17:35:39;12.65;;;5.45;;
52668;SDS011;59898;52.786;6.892;2022-12-05T17:39:00;9.73;;;6.50;;
52668;SDS011;59898;52.786;6.892;2022-12-05T17:42:21;11.02;;;6.65;;
52668;SDS011;59898;52.786;6.892;2022-12-05T17:45:42;8.88;;;6.03;;
52668;SDS011;59898;52.786;6.892;2022-12-05T17:49:03;7.93;;;6.35;;
52668;SDS011;59898;52.786;6.892;2022-12-05T17:52:23;9.50;;;5.93;;
52668;SDS011;59898;52.786;6.892;2022-12-05T17:55:44;9.70;;;6.80;;
52668;SDS011;59898;52.786;6.892;2022-12-05T18:02:28;8.90;;;5.65;;
52668;SDS011;59898;52.786;6.892;2022-12-05T18:05:48;8.43;;;6.40;;
52668;SDS011;59898;52.786;6.892;2022-12-05T18:09:09;8.55;;;6.47;;
52668;SDS011;59898;52.786;6.892;2022-12-05T18:12:30;9.18;;;5.57;;
52668;SDS011;59898;52.786;6.892;2022-12-05T18:15:54;11.73;;;6.63;;
52668;SDS011;59898;52.786;6.892;2022-12-05T18:19:17;7.97;;;6.32;;
52668;SDS011;59898;52.786;6.892;2022-12-05T18:22:37;10.05;;;6.45;;
52668;SDS011;59898;52.786;6.892;2022-12-05T18:25:58;10.32;;;6.22;;
52668;SDS011;59898;52.786;6.892;2022-12-05T18:29:19;10.40;;;6.50;;
52668;SDS011;59898;52.786;6.892;2022-12-05T18:32:40;11.85;;;7.10;;
52668;SDS011;59898;52.786;6.892;2022-12-05T18:36:04;11.23;;;7.20;;
52668;SDS011;59898;52.786;6.892;2022-12-05T18:39:27;10.63;;;7.10;;
52668;SDS011;59898;52.786;6.892;2022-12-05T18:42:47;9.63;;;7.07;;
52668;SDS011;59898;52.786;6.892;2022-12-05T18:46:08;11.00;;;7.03;;
52668;SDS011;59898;52.786;6.892;2022-12-05T18:49:29;11.80;;;7.22;;
52668;SDS011;59898;52.786;6.892;2022-12-05T18:52:49;11.13;;;6.95;;
52668;SDS011;59898;52.786;6.892;2022-12-05T18:56:10;11.40;;;7.75;;
52668;SDS011;59898;52.786;6.892;2022-12-05T18:59:31;9.88;;;6.68;;
52668;SDS011;59898;52.786;6.892;2022-12-05T19:02:52;11.85;;;7.57;;
52668;SDS011;59898;52.786;6.892;2022-12-05T19:06:13;12.15;;;8.30;;
52668;SDS011;59898;52.786;6.892;2022-12-05T19:09:36;10.80;;;6.85;;
52668;SDS011;59898;52.786;6.892;2022-12-05T19:12:56;11.77;;;7.45;;
52668;SDS011;59898;52.786;6.892;2022-12-05T19:16:17;12.82;;;9.45;;
52668;SDS011;59898;52.786;6.892;2022-12-05T19:19:38;11.32;;;7.90;;
52668;SDS011;59898;52.786;6.892;2022-12-05T19:22:59;11.75;;;8.02;;
52668;SDS011;59898;52.786;6.892;2022-12-05T19:26:19;12.73;;;8.45;;
52668;SDS011;59898;52.786;6.892;2022-12-05T19:29:40;11.82;;;6.78;;
52668;SDS011;59898;52.786;6.892;2022-12-05T19:33:01;10.38;;;6.28;;
52668;SDS011;59898;52.786;6.892;2022-12-05T19:36:26;10.80;;;7.32;;
52668;SDS011;59898;52.786;6.892;2022-12-05T19:39:48;10.55;;;6.35;;
52668;SDS011;59898;52.786;6.892;2022-12-05T19:43:10;14.20;;;7.38;;
52668;SDS011;59898;52.786;6.892;2022-12-05T19:46:31;9.40;;;6.57;;
52668;SDS011;59898;52.786;6.892;2022-12-05T19:49:53;10.15;;;6.10;;
52668;SDS011;59898;52.786;6.892;2022-12-05T19:53:13;8.73;;;6.53;;
52668;SDS011;59898;52.786;6.892;2022-12-05T19:56:34;11.55;;;7.80;;
52668;SDS011;59898;52.786;6.892;2022-12-05T19:59:55;11.40;;;7.07;;
52668;SDS011;59898;52.786;6.892;2022-12-05T20:03:16;11.35;;;7.47;;
52668;SDS011;59898;52.786;6.892;2022-12-05T20:06:41;11.98;;;8.07;;
52668;SDS011;59898;52.786;6.892;2022-12-05T20:10:04;8.75;;;7.10;;
52668;SDS011;59898;52.786;6.892;2022-12-05T20:13:25;10.38;;;6.90;;
52668;SDS011;59898;52.786;6.892;2022-12-05T20:16:46;10.80;;;7.63;;
52668;SDS011;59898;52.786;6.892;2022-12-05T20:20:07;11.32;;;7.53;;
52668;SDS011;59898;52.786;6.892;2022-12-05T20:23:28;13.25;;;7.95;;
52668;SDS011;59898;52.786;6.892;2022-12-05T20:26:49;9.30;;;7.53;;
52668;SDS011;59898;52.786;6.892;2022-12-05T20:30:11;10.18;;;6.82;;
52668;SDS011;59898;52.786;6.892;2022-12-05T20:33:33;9.93;;;6.75;;
52668;SDS011;59898;52.786;6.892;2022-12-05T20:36:54;61.33;;;38.17;;
52668;SDS011;59898;52.786;6.892;2022-12-05T20:40:15;11.98;;;9.60;;
52668;SDS011;59898;52.786;6.892;2022-12-05T20:43:35;12.90;;;8.25;;
52668;SDS011;59898;52.786;6.892;2022-12-05T20:46:56;12.20;;;7.60;;
52668;SDS011;59898;52.786;6.892;2022-12-05T20:50:17;10.52;;;7.55;;
52668;SDS011;59898;52.786;6.892;2022-12-05T20:53:38;9.50;;;6.82;;
52668;SDS011;59898;52.786;6.892;2022-12-05T20:57:00;13.13;;;9.00;;
52668;SDS011;59898;52.786;6.892;2022-12-05T21:00:22;13.30;;;9.02;;
52668;SDS011;59898;52.786;6.892;2022-12-05T21:03:44;11.23;;;7.47;;
52668;SDS011;59898;52.786;6.892;2022-12-05T21:07:06;14.45;;;8.23;;
52668;SDS011;59898;52.786;6.892;2022-12-05T21:10:26;11.10;;;8.18;;
52668;SDS011;59898;52.786;6.892;2022-12-05T21:13:47;13.50;;;8.20;;
52668;SDS011;59898;52.786;6.892;2022-12-05T21:17:08;15.25;;;9.77;;
52668;SDS011;59898;52.786;6.892;2022-12-05T21:20:28;13.07;;;9.35;;
52668;SDS011;59898;52.786;6.892;2022-12-05T21:23:56;16.13;;;8.95;;
52668;SDS011;59898;52.786;6.892;2022-12-05T21:27:18;12.68;;;8.50;;
52668;SDS011;59898;52.786;6.892;2022-12-05T21:30:39;13.30;;;9.27;;
52668;SDS011;59898;52.786;6.892;2022-12-05T21:34:01;12.57;;;7.68;;
52668;SDS011;59898;52.786;6.892;2022-12-05T21:37:24;67.28;;;43.63;;
52668;SDS011;59898;52.786;6.892;2022-12-05T21:40:44;20.85;;;13.68;;
52668;SDS011;59898;52.786;6.892;2022-12-05T21:44:05;19.33;;;9.90;;
52668;SDS011;59898;52.786;6.892;2022-12-05T21:47:26;14.65;;;8.95;;
52668;SDS011;59898;52.786;6.892;2022-12-05T21:50:47;15.45;;;9.02;;
52668;SDS011;59898;52.786;6.892;2022-12-05T21:54:08;12.18;;;8.23;;
52668;SDS011;59898;52.786;6.892;2022-12-05T21:57:29;13.40;;;8.77;;
52668;SDS011;59898;52.786;6.892;2022-12-05T22:00:51;15.23;;;8.98;;
52668;SDS011;59898;52.786;6.892;2022-12-05T22:04:12;11.75;;;8.27;;
52668;SDS011;59898;52.786;6.892;2022-12-05T22:07:33;16.42;;;9.77;;
52668;SDS011;59898;52.786;6.892;2022-12-05T22:10:54;13.73;;;8.00;;
52668;SDS011;59898;52.786;6.892;2022-12-05T22:14:14;14.70;;;9.55;;
52668;SDS011;59898;52.786;6.892;2022-12-05T22:17:36;15.68;;;9.48;;
52668;SDS011;59898;52.786;6.892;2022-12-05T22:21:01;13.18;;;8.85;;
52668;SDS011;59898;52.786;6.892;2022-12-05T22:24:23;13.32;;;8.55;;
52668;SDS011;59898;52.786;6.892;2022-12-05T22:27:44;47.13;;;28.52;;
52668;SDS011;59898;52.786;6.892;2022-12-05T22:31:05;17.45;;;12.05;;
52668;SDS011;59898;52.786;6.892;2022-12-05T22:34:27;14.30;;;10.20;;
52668;SDS011;59898;52.786;6.892;2022-12-05T22:37:48;16.50;;;8.88;;
52668;SDS011;59898;52.786;6.892;2022-12-05T22:41:12;11.45;;;9.07;;
52668;SDS011;59898;52.786;6.892;2022-12-05T22:44:35;11.98;;;8.23;;
52668;SDS011;59898;52.786;6.892;2022-12-05T22:47:55;11.82;;;8.82;;
52668;SDS011;59898;52.786;6.892;2022-12-05T22:51:17;11.45;;;7.78;;
52668;SDS011;59898;52.786;6.892;2022-12-05T22:54:39;12.57;;;8.43;;